CheckWX is a tool to help pilots better visualize weather data.  It is not intended as a substitute for an official pre-flight weather briefing.

13:00:44 UTC

KMCE METAR
Merced Regional / Macready Field Airport
Merced, California, USA
Current

1 hour ago

KMCE 221153Z AUTO 33007KT 10SM CLR M01/M03 A2996 RMK AO2 SLP147 T10061033 10056 21006 51023
Observed
Feb-22 @ 11:53 UTC
Wind
  • 330° at 7 KTS
Visibility
10 SM
Flight Rules
VFR
Cloud Levels
  • Clear skies
Temperature
-1°C / 30°F
Dewpoint
-3°C / 27°F
Humidity
86%
Altimeter
29.96" Hg
Pressure
1014.7 hPa
Previous

2 hours ago

KMCE 221053Z AUTO 30003KT 10SM CLR 02/M03 A2994 RMK AO2 SLP138 T00221028
Observed
Feb-22 @ 10:53 UTC
Wind
  • 300° at 3 KTS
Visibility
10 SM
Flight Rules
VFR
Cloud Levels
  • Clear skies
Temperature
C / 36°F
Dewpoint
-3°C / 27°F
Humidity
70%
Altimeter
29.94" Hg
Pressure
1013.8 hPa
Previous

3 hours ago

KMCE 220953Z AUTO 02004KT 10SM CLR 02/M03 A2992 RMK AO2 SLP132 T00171028
Observed
Feb-22 @ 09:53 UTC
Wind
  • 020° at 4 KTS
Visibility
10 SM
Flight Rules
VFR
Cloud Levels
  • Clear skies
Temperature
C / 36°F
Dewpoint
-3°C / 27°F
Humidity
70%
Altimeter
29.92" Hg
Pressure
1013.2 hPa